createdAt,value
2023-03-15T00:01:48.972Z,96816.06
2023-03-15T00:04:15.631Z,96816.97
2023-03-15T00:06:42.303Z,96818.97
2023-03-15T00:09:08.972Z,96818.25
2023-03-15T00:11:35.597Z,96829.44
2023-03-15T00:14:02.564Z,96830.72
2023-03-15T00:16:29.447Z,96841.03
2023-03-15T00:18:56.521Z,96843.97
2023-03-15T00:21:23.715Z,96849.22
2023-03-15T00:23:50.752Z,96851.75
2023-03-15T00:26:17.849Z,96854.09
2023-03-15T00:28:44.618Z,96846.34
2023-03-15T00:31:19.851Z,96843.13
2023-03-15T00:33:47.173Z,96840.41
2023-03-15T00:36:14.572Z,96833.88
2023-03-15T00:38:44.151Z,96844.22
2023-03-15T00:41:16.353Z,96852.16
2023-03-15T00:43:43.803Z,96854.16
2023-03-15T00:46:11.252Z,96854.69
2023-03-15T00:48:38.488Z,96856.69
2023-03-15T00:51:16.954Z,96853.59
2023-03-15T00:53:45.431Z,96853.44
2023-03-15T00:56:15.638Z,96859.03
2023-03-15T00:58:42.758Z,96852.34
2023-03-15T01:01:21.980Z,96852.53
2023-03-15T01:03:48.916Z,96846.56
2023-03-15T01:06:19.179Z,96849.25
2023-03-15T01:08:45.941Z,96852.69
2023-03-15T01:11:15.727Z,96844.22
2023-03-15T01:13:42.744Z,96854.69
2023-03-15T01:16:11.418Z,96852.69
2023-03-15T01:18:38.536Z,96848.00
2023-03-15T01:21:13.754Z,96856.13
2023-03-15T01:23:41.443Z,96844.41
2023-03-15T01:26:11.949Z,96838.97
2023-03-15T01:28:39.044Z,96841.84
2023-03-15T01:31:06.009Z,96845.47
2023-03-15T01:33:32.791Z,96842.56
2023-03-15T01:36:05.857Z,96853.41
2023-03-15T01:38:32.951Z,96849.81
2023-03-15T01:41:00.628Z,96844.34
2023-03-15T01:43:29.016Z,96842.75
2023-03-15T01:46:17.824Z,96848.72
2023-03-15T01:48:53.635Z,96855.22
2023-03-15T01:51:30.520Z,96846.72
2023-03-15T01:54:13.293Z,96846.34
2023-03-15T01:56:41.812Z,96846.34
2023-03-15T01:59:16.100Z,96852.84
2023-03-15T02:01:45.944Z,96856.09
2023-03-15T02:04:18.656Z,96857.72
2023-03-15T02:06:47.413Z,96849.41
2023-03-15T02:09:18.137Z,96850.66
2023-03-15T02:11:45.225Z,96847.63
2023-03-15T02:14:14.488Z,96852.66
2023-03-15T02:16:41.284Z,96845.78
2023-03-15T02:19:22.600Z,96845.41
2023-03-15T02:22:00.830Z,96854.66
2023-03-15T02:25:08.971Z,96849.03
2023-03-15T02:27:36.914Z,96854.47
2023-03-15T02:30:04.687Z,96852.31
2023-03-15T02:32:31.458Z,96858.25
2023-03-15T02:34:58.519Z,96860.78
2023-03-15T02:37:25.500Z,96865.47
2023-03-15T02:39:52.136Z,96871.06
2023-03-15T02:42:19.399Z,96870.72
2023-03-15T02:44:48.883Z,96870.56
2023-03-15T02:47:24.997Z,96876.84
2023-03-15T02:49:53.892Z,96884.81
2023-03-15T02:52:22.297Z,96881.94
2023-03-15T02:54:49.488Z,96889.88
2023-03-15T02:57:19.026Z,96890.41
2023-03-15T02:59:45.752Z,96886.28
2023-03-15T03:02:13.360Z,96890.25
2023-03-15T03:04:41.557Z,96889.88
2023-03-15T03:07:08.295Z,96885.16
2023-03-15T03:09:35.183Z,96891.16
2023-03-15T03:12:01.796Z,96891.31
2023-03-15T03:14:29.120Z,96890.78
2023-03-15T03:16:55.817Z,96893.31
2023-03-15T03:19:25.702Z,96896.00
2023-03-15T03:21:56.764Z,96895.66
2023-03-15T03:24:25.863Z,96906.31
2023-03-15T03:26:57.752Z,96897.81
2023-03-15T03:29:25.220Z,96901.25
2023-03-15T03:31:52.304Z,96900.53
2023-03-15T03:34:19.910Z,96900.72
2023-03-15T03:36:46.550Z,96904.53
2023-03-15T03:39:13.187Z,96899.81
2023-03-15T03:41:40.062Z,96894.94
2023-03-15T03:44:06.717Z,96892.22
2023-03-15T03:46:33.537Z,96904.31
2023-03-15T03:49:00.321Z,96907.03
2023-03-15T03:51:26.956Z,96904.50
2023-03-15T03:53:53.586Z,96903.59
2023-03-15T03:56:20.252Z,96911.38
2023-03-15T03:58:46.853Z,96920.97
2023-03-15T04:01:13.495Z,96921.34
2023-03-15T04:03:40.224Z,96931.81
2023-03-15T04:06:06.998Z,96931.81
2023-03-15T04:08:33.721Z,96938.84
2023-03-15T04:11:04.202Z,96939.41
2023-03-15T04:13:31.376Z,96943.53
2023-03-15T04:15:58.610Z,96949.88
2023-03-15T04:18:25.257Z,96940.81
2023-03-15T04:20:54.709Z,96958.19
2023-03-15T04:23:23.028Z,96953.13
2023-03-15T04:25:51.739Z,96961.25
2023-03-15T04:28:19.658Z,96955.47
2023-03-15T04:30:48.332Z,96955.78
2023-03-15T04:33:15.120Z,96968.78
2023-03-15T04:35:42.791Z,96971.50
2023-03-15T04:38:09.501Z,96978.56
2023-03-15T04:40:36.497Z,96983.63
2023-03-15T04:43:05.334Z,96982.34
2023-03-15T04:45:32.715Z,96993.56
2023-03-15T04:47:59.738Z,96996.06
2023-03-15T04:50:26.444Z,97001.25
2023-03-15T04:52:53.556Z,97004.13
2023-03-15T04:55:20.551Z,97009.34
2023-03-15T04:57:47.197Z,97004.09
2023-03-15T05:00:14.374Z,97012.59
2023-03-15T05:02:41.947Z,97018.84
2023-03-15T05:05:12.542Z,97022.44
2023-03-15T05:07:39.342Z,97014.28
2023-03-15T05:10:07.304Z,97028.03
2023-03-15T05:12:34.066Z,97030.22
2023-03-15T05:15:00.787Z,97036.56
2023-03-15T05:17:28.035Z,97035.09
2023-03-15T05:19:54.680Z,97052.88
2023-03-15T05:22:25.563Z,97054.38
2023-03-15T05:24:53.807Z,97051.72
2023-03-15T05:27:20.871Z,97062.66
2023-03-15T05:29:47.892Z,97049.69
2023-03-15T05:32:14.609Z,97062.28
2023-03-15T05:34:42.760Z,97065.72
2023-03-15T05:37:10.331Z,97072.13
2023-03-15T05:39:37.070Z,97087.34
2023-03-15T05:42:03.941Z,97078.91
2023-03-15T05:44:30.569Z,97083.66
2023-03-15T05:46:57.232Z,97083.75
2023-03-15T05:49:23.871Z,97098.03
2023-03-15T05:51:50.500Z,97098.22
2023-03-15T05:54:17.108Z,97104.88
2023-03-15T05:56:43.748Z,97098.22
2023-03-15T05:59:10.385Z,97108.72
2023-03-15T06:01:37.078Z,97107.81
2023-03-15T06:04:04.082Z,97120.09
2023-03-15T06:06:33.276Z,97118.56
2023-03-15T06:09:00.760Z,97137.25
2023-03-15T06:11:27.466Z,97130.50
2023-03-15T06:13:54.148Z,97138.72
2023-03-15T06:16:20.955Z,97132.63
2023-03-15T06:18:47.737Z,97144.16
2023-03-15T06:21:14.558Z,97152.56
2023-03-15T06:23:41.215Z,97157.03
2023-03-15T06:26:07.822Z,97163.97
2023-03-15T06:28:34.622Z,97163.97
2023-03-15T06:31:12.645Z,97182.94
2023-03-15T06:33:39.799Z,97189.56
2023-03-15T06:36:07.334Z,97201.84
2023-03-15T06:38:34.642Z,97204.00
2023-03-15T06:41:01.401Z,97222.41
2023-03-15T06:43:28.756Z,97227.28
2023-03-15T06:45:56.779Z,97249.31
2023-03-15T06:48:23.422Z,97267.72
2023-03-15T06:50:50.323Z,97273.53
2023-03-15T06:53:17.801Z,97278.50
2023-03-15T06:55:45.215Z,97286.13
2023-03-15T06:58:12.628Z,97297.91
2023-03-15T07:00:39.678Z,97307.59
2023-03-15T07:03:06.256Z,97312.44
2023-03-15T07:05:32.855Z,97323.84
2023-03-15T07:07:59.596Z,97316.41
2023-03-15T07:10:26.241Z,97319.84
2023-03-15T07:12:52.919Z,97330.88
2023-03-15T07:15:19.567Z,97338.78
2023-03-15T07:17:46.179Z,97354.72
2023-03-15T07:20:13.081Z,97368.53
2023-03-15T07:22:40.079Z,97389.69
2023-03-15T07:25:07.552Z,97402.97
2023-03-15T07:27:34.238Z,97420.91
2023-03-15T07:30:01.326Z,97428.13
2023-03-15T07:32:28.204Z,97432.28
2023-03-15T07:34:58.274Z,97455.03
2023-03-15T07:37:25.021Z,97470.47
2023-03-15T07:39:51.628Z,97485.47
2023-03-15T07:42:18.368Z,97488.16
2023-03-15T07:44:45.001Z,97505.25
2023-03-15T07:47:11.813Z,97500.31
2023-03-15T07:49:38.428Z,97503.25
2023-03-15T07:52:05.126Z,97512.06
2023-03-15T07:54:32.068Z,97520.63
2023-03-15T07:56:58.717Z,97522.28
2023-03-15T07:59:25.436Z,97536.44
2023-03-15T08:01:52.064Z,97544.75
2023-03-15T08:04:18.704Z,97544.06
2023-03-15T08:06:45.329Z,97565.38
2023-03-15T08:09:12.061Z,97554.66
2023-03-15T08:11:38.681Z,97560.53
2023-03-15T08:14:05.875Z,97570.56
2023-03-15T08:16:32.544Z,97572.75
2023-03-15T08:18:59.195Z,97575.69
2023-03-15T08:21:25.830Z,97574.22
2023-03-15T08:23:52.491Z,97581.25
2023-03-15T08:26:19.102Z,97589.06
2023-03-15T08:28:45.715Z,97582.88
2023-03-15T08:31:14.014Z,97596.97
2023-03-15T08:33:40.960Z,97600.25
2023-03-15T08:36:07.989Z,97612.66
2023-03-15T08:38:34.850Z,97615.72
2023-03-15T08:41:01.913Z,97625.66
2023-03-15T08:43:28.524Z,97621.22
2023-03-15T08:46:01.048Z,97612.03
2023-03-15T08:48:28.372Z,97617.91
2023-03-15T08:50:55.017Z,97617.34
2023-03-15T08:53:21.584Z,97611.63
2023-03-15T08:55:49.616Z,97612.28
2023-03-15T08:58:16.322Z,97611.63
2023-03-15T09:00:43.009Z,97619.81
2023-03-15T09:03:09.625Z,97613.97
2023-03-15T09:05:36.359Z,97615.69
2023-03-15T09:08:03.108Z,97617.59
2023-03-15T09:10:29.855Z,97619.88
2023-03-15T09:12:56.491Z,97613.97
2023-03-15T09:15:23.247Z,97611.91
2023-03-15T09:17:51.671Z,97609.50
2023-03-15T09:20:21.828Z,97608.84
2023-03-15T09:22:53.683Z,97606.22
2023-03-15T09:25:21.157Z,97603.78
2023-03-15T09:27:47.795Z,97604.84
2023-03-15T09:30:15.165Z,97608.75
2023-03-15T09:32:43.703Z,97602.22
2023-03-15T09:35:14.055Z,97607.13
2023-03-15T09:37:42.389Z,97605.66
2023-03-15T09:40:28.819Z,97604.44
2023-03-15T09:43:40.036Z,97598.63
2023-03-15T09:46:43.300Z,97606.13
2023-03-15T09:49:21.999Z,97596.44
2023-03-15T09:52:03.503Z,97603.19
2023-03-15T09:54:50.679Z,97606.38
2023-03-15T09:57:22.966Z,97602.03
2023-03-15T09:59:53.708Z,97598.28
2023-03-15T10:02:29.912Z,97601.44
2023-03-15T10:05:13.814Z,97603.97
2023-03-15T10:07:41.193Z,97592.63
2023-03-15T10:10:28.486Z,97596.41
2023-03-15T10:13:23.452Z,97594.72
2023-03-15T10:16:27.969Z,97596.53
2023-03-15T10:19:31.929Z,97594.56
2023-03-15T10:22:23.017Z,97595.78
2023-03-15T10:25:05.169Z,97579.00
2023-03-15T10:27:43.102Z,97582.53
2023-03-15T10:30:17.036Z,97581.63
2023-03-15T10:32:47.655Z,97580.25
2023-03-15T10:35:17.345Z,97577.69
2023-03-15T10:37:44.509Z,97579.41
2023-03-15T10:40:16.345Z,97581.03
2023-03-15T10:42:45.175Z,97580.44
2023-03-15T10:45:20.804Z,97591.69
2023-03-15T10:47:57.731Z,97592.41
2023-03-15T10:50:28.878Z,97592.72
2023-03-15T10:52:57.369Z,97592.94
2023-03-15T10:55:37.005Z,97603.28
2023-03-15T10:58:27.587Z,97589.63
2023-03-15T11:01:07.419Z,97592.25
2023-03-15T11:03:35.292Z,97592.94
2023-03-15T11:06:02.550Z,97598.06
2023-03-15T11:08:41.183Z,97600.59
2023-03-15T11:11:09.239Z,97590.59
2023-03-15T11:13:38.212Z,97601.00
2023-03-15T11:16:20.095Z,97606.34
2023-03-15T11:18:59.639Z,97596.13
2023-03-15T11:21:33.480Z,97597.03
2023-03-15T11:24:03.173Z,97591.94
2023-03-15T11:26:35.998Z,97586.78
2023-03-15T11:29:08.090Z,97565.94
2023-03-15T11:31:36.261Z,97577.91
2023-03-15T11:34:12.402Z,97584.06
2023-03-15T11:36:44.044Z,97586.00
2023-03-15T11:39:15.494Z,97586.72
2023-03-15T11:41:54.366Z,97592.34
2023-03-15T11:44:46.646Z,97596.22
2023-03-15T11:47:37.134Z,97602.47
2023-03-15T11:50:04.347Z,97592.47
2023-03-15T11:52:31.192Z,97601.31
2023-03-15T11:55:03.921Z,97604.53
2023-03-15T11:57:58.032Z,97588.16
2023-03-15T12:00:49.436Z,97601.16
2023-03-15T12:03:45.237Z,97596.22
2023-03-15T12:06:36.745Z,97596.16
2023-03-15T12:09:52.750Z,97586.66
2023-03-15T12:12:25.121Z,97599.56
2023-03-15T12:15:18.397Z,97610.50
2023-03-15T12:17:50.730Z,97599.16
2023-03-15T12:20:21.497Z,97590.34
2023-03-15T12:22:55.367Z,97592.63
2023-03-15T12:26:06.351Z,97596.38
2023-03-15T12:28:41.363Z,97591.19
2023-03-15T12:31:14.593Z,97607.47
2023-03-15T12:33:51.421Z,97611.22
2023-03-15T12:36:42.189Z,97606.56
2023-03-15T12:39:45.633Z,97601.44
2023-03-15T12:42:52.564Z,97592.47
2023-03-15T12:45:37.297Z,97587.63
2023-03-15T12:48:24.672Z,97596.97
2023-03-15T12:50:54.811Z,97593.34
2023-03-15T12:53:44.759Z,97588.03
2023-03-15T12:56:42.491Z,97598.22
2023-03-15T12:59:25.146Z,97592.00
2023-03-15T13:01:52.490Z,97587.72
2023-03-15T13:04:21.165Z,97597.50
2023-03-15T13:07:17.866Z,97589.09
2023-03-15T13:10:31.394Z,97598.03
2023-03-15T13:13:13.386Z,97590.25
2023-03-15T13:16:38.330Z,97595.69
2023-03-15T13:19:18.893Z,97603.91
2023-03-15T13:22:24.437Z,97602.16
2023-03-15T13:25:08.333Z,97605.88
2023-03-15T13:28:03.971Z,97603.94
2023-03-15T13:30:36.799Z,97598.00
2023-03-15T13:33:29.162Z,97602.13
2023-03-15T13:36:01.498Z,97614.59
2023-03-15T13:38:49.645Z,97611.19
2023-03-15T13:41:24.975Z,97619.44
2023-03-15T13:43:54.622Z,97623.00
2023-03-15T13:46:24.082Z,97625.72
2023-03-15T13:48:54.406Z,97626.66
2023-03-15T13:51:24.979Z,97624.78
2023-03-15T13:53:58.360Z,97623.63
2023-03-15T13:56:37.369Z,97619.06
2023-03-15T13:59:12.284Z,97623.97
2023-03-15T14:01:42.404Z,97621.03
2023-03-15T14:04:15.718Z,97621.44
2023-03-15T14:06:45.594Z,97615.00
2023-03-15T14:09:21.603Z,97607.13
2023-03-15T14:12:02.431Z,97628.53
2023-03-15T14:14:31.241Z,97625.13
2023-03-15T14:17:05.490Z,97620.97
2023-03-15T14:19:35.153Z,97624.00
2023-03-15T14:22:12.517Z,97626.16
2023-03-15T14:24:41.694Z,97625.53
2023-03-15T14:27:25.237Z,97620.97
2023-03-15T14:29:57.554Z,97616.72
2023-03-15T14:32:30.082Z,97618.16
2023-03-15T14:35:17.548Z,97614.25
2023-03-15T14:37:44.486Z,97614.03
2023-03-15T14:40:21.459Z,97619.28
2023-03-15T14:42:49.859Z,97612.84
2023-03-15T14:45:18.481Z,97606.78
2023-03-15T14:47:56.741Z,97604.59
2023-03-15T14:50:26.413Z,97611.94
2023-03-15T14:52:54.365Z,97611.06
2023-03-15T14:55:29.260Z,97613.22
2023-03-15T14:57:55.957Z,97612.94
2023-03-15T15:00:22.822Z,97611.09
2023-03-15T15:02:53.047Z,97605.75
2023-03-15T15:05:37.785Z,97602.69
2023-03-15T15:08:09.504Z,97605.56
2023-03-15T15:10:36.881Z,97591.41
2023-03-15T15:13:06.922Z,97589.13
2023-03-15T15:15:47.377Z,97597.63
2023-03-15T15:18:18.653Z,97600.91
2023-03-15T15:20:46.060Z,97595.00
2023-03-15T15:23:20.102Z,97590.63
2023-03-15T15:25:48.091Z,97592.63
2023-03-15T15:28:23.911Z,97593.56
2023-03-15T15:31:00.026Z,97592.72
2023-03-15T15:33:26.603Z,97594.00
2023-03-15T15:35:55.350Z,97591.88
2023-03-15T15:38:24.595Z,97586.00
2023-03-15T15:40:51.222Z,97592.00
2023-03-15T15:43:19.002Z,97581.47
2023-03-15T15:45:45.639Z,97581.88
2023-03-15T15:48:12.207Z,97588.25
2023-03-15T15:50:38.851Z,97587.63
2023-03-15T15:53:06.662Z,97589.75
2023-03-15T15:55:35.976Z,97586.09
2023-03-15T15:58:04.629Z,97586.97
2023-03-15T16:00:31.359Z,97590.91
2023-03-15T16:02:58.794Z,97582.25
2023-03-15T16:05:27.498Z,97584.03
2023-03-15T16:07:56.639Z,97590.41
2023-03-15T16:10:30.465Z,97585.16
2023-03-15T16:12:57.762Z,97590.50
2023-03-15T16:15:24.433Z,97585.28
2023-03-15T16:17:51.041Z,97598.66
2023-03-15T16:20:18.743Z,97593.22
2023-03-15T16:22:52.612Z,97602.53
2023-03-15T16:25:26.344Z,97596.72
2023-03-15T16:27:54.789Z,97604.03
2023-03-15T16:30:24.210Z,97604.03
2023-03-15T16:32:55.234Z,97606.53
2023-03-15T16:35:24.461Z,97611.22
2023-03-15T16:37:56.305Z,97605.81
2023-03-15T16:40:27.382Z,97607.47
2023-03-15T16:42:54.866Z,97613.75
2023-03-15T16:45:21.844Z,97608.31
2023-03-15T16:47:48.718Z,97610.41
2023-03-15T16:50:15.783Z,97619.69
2023-03-15T16:52:44.603Z,97626.25
2023-03-15T16:55:14.136Z,97628.75
2023-03-15T16:57:41.172Z,97633.97
2023-03-15T17:00:16.198Z,97642.47
2023-03-15T17:02:46.034Z,97659.38
2023-03-15T17:05:17.602Z,97656.03
2023-03-15T17:07:44.827Z,97665.53
2023-03-15T17:10:20.107Z,97668.00
2023-03-15T17:12:46.946Z,97673.00
2023-03-15T17:15:13.817Z,97675.94
2023-03-15T17:17:40.414Z,97687.06
2023-03-15T17:20:12.511Z,97686.19
2023-03-15T17:22:41.946Z,97691.47
2023-03-15T17:25:09.045Z,97699.88
2023-03-15T17:27:39.254Z,97705.91
2023-03-15T17:30:30.316Z,97723.16
2023-03-15T17:32:57.404Z,97730.84
2023-03-15T17:35:29.292Z,97737.34
2023-03-15T17:37:56.352Z,97747.00
2023-03-15T17:40:25.192Z,97750.84
2023-03-15T17:42:54.035Z,97764.66
2023-03-15T17:45:23.633Z,97771.59
2023-03-15T17:47:51.114Z,97762.50
2023-03-15T17:50:18.909Z,97764.59
2023-03-15T17:52:47.832Z,97777.50
2023-03-15T17:55:16.578Z,97782.31
2023-03-15T17:57:53.923Z,97788.41
2023-03-15T18:00:22.175Z,97792.50
2023-03-15T18:02:55.683Z,97793.53
2023-03-15T18:05:27.920Z,97792.78
2023-03-15T18:08:01.923Z,97804.53
2023-03-15T18:10:35.583Z,97800.63
2023-03-15T18:13:03.101Z,97805.44
2023-03-15T18:15:29.793Z,97809.66
2023-03-15T18:17:56.430Z,97816.25
2023-03-15T18:20:24.182Z,97810.78
2023-03-15T18:22:51.643Z,97805.84
2023-03-15T18:25:27.759Z,97807.03
2023-03-15T18:27:54.522Z,97809.72
2023-03-15T18:30:23.744Z,97804.88
2023-03-15T18:32:52.140Z,97810.97
2023-03-15T18:35:25.081Z,97811.34
2023-03-15T18:37:54.059Z,97811.88
2023-03-15T18:40:21.606Z,97814.03
2023-03-15T18:42:48.398Z,97816.03
2023-03-15T18:45:22.010Z,97818.06
2023-03-15T18:47:49.236Z,97817.28
2023-03-15T18:50:17.273Z,97820.25
2023-03-15T18:52:44.628Z,97832.81
2023-03-15T18:55:16.853Z,97819.53
2023-03-15T18:57:46.058Z,97828.19
2023-03-15T19:00:15.161Z,97827.22
2023-03-15T19:02:44.180Z,97826.50
2023-03-15T19:05:12.403Z,97835.31
2023-03-15T19:07:40.324Z,97833.34
2023-03-15T19:10:09.962Z,97831.63
2023-03-15T19:12:36.903Z,97829.91
2023-03-15T19:15:04.875Z,97840.19
2023-03-15T19:17:31.496Z,97834.78
2023-03-15T19:19:58.088Z,97838.47
2023-03-15T19:22:26.458Z,97843.34
2023-03-15T19:24:53.085Z,97843.34
2023-03-15T19:27:19.829Z,97844.88
2023-03-15T19:29:46.424Z,97842.72
2023-03-15T19:32:13.158Z,97843.44
2023-03-15T19:34:39.738Z,97842.75
2023-03-15T19:37:06.289Z,97849.13
2023-03-15T19:39:33.100Z,97841.25
2023-03-15T19:41:59.789Z,97844.44
2023-03-15T19:44:27.284Z,97847.94
2023-03-15T19:46:53.878Z,97848.41
2023-03-15T19:49:20.673Z,97855.72
2023-03-15T19:51:47.216Z,97864.53
2023-03-15T19:54:13.806Z,97863.38
2023-03-15T19:56:40.395Z,97871.19
2023-03-15T19:59:07.083Z,97871.91
2023-03-15T20:01:34.099Z,97879.03
2023-03-15T20:04:00.823Z,97873.59
2023-03-15T20:06:27.419Z,97870.72
2023-03-15T20:08:53.997Z,97874.19
2023-03-15T20:11:25.033Z,97872.00
2023-03-15T20:13:55.171Z,97872.47
2023-03-15T20:16:22.810Z,97877.16
2023-03-15T20:18:55.204Z,97876.00
2023-03-15T20:21:22.554Z,97873.03
2023-03-15T20:23:49.203Z,97872.63
2023-03-15T20:26:17.652Z,97887.41
2023-03-15T20:28:44.780Z,97877.31
2023-03-15T20:31:17.347Z,97883.66
2023-03-15T20:33:45.644Z,97888.31
2023-03-15T20:36:12.313Z,97885.19
2023-03-15T20:38:38.955Z,97896.00
2023-03-15T20:41:06.984Z,97892.41
2023-03-15T20:43:34.149Z,97906.78
2023-03-15T20:46:04.332Z,97903.69
2023-03-15T20:48:33.886Z,97907.81
2023-03-15T20:51:04.142Z,97905.00
2023-03-15T20:53:36.044Z,97913.59
2023-03-15T20:56:03.601Z,97914.34
2023-03-15T20:58:31.011Z,97913.91
2023-03-15T21:01:09.250Z,97919.09
2023-03-15T21:03:36.615Z,97925.09
2023-03-15T21:06:05.978Z,97921.13
2023-03-15T21:08:33.610Z,97928.94
2023-03-15T21:11:01.101Z,97917.19
2023-03-15T21:13:27.988Z,97927.81
2023-03-15T21:15:54.713Z,97934.44
2023-03-15T21:18:23.677Z,97933.72
2023-03-15T21:21:05.045Z,97939.16
2023-03-15T21:23:31.973Z,97940.84
2023-03-15T21:26:01.746Z,97938.66
2023-03-15T21:28:28.865Z,97941.59
2023-03-15T21:30:56.121Z,97934.97
2023-03-15T21:33:24.291Z,97936.53
2023-03-15T21:35:51.276Z,97939.69
2023-03-15T21:38:18.132Z,97937.25
2023-03-15T21:40:46.580Z,97943.38
2023-03-15T21:43:13.949Z,97939.94
2023-03-15T21:45:42.498Z,97941.66
2023-03-15T21:48:09.657Z,97948.53
2023-03-15T21:50:36.588Z,97948.56
2023-03-15T21:53:03.742Z,97941.72
2023-03-15T21:55:33.483Z,97951.81
2023-03-15T21:58:01.956Z,97959.91
2023-03-15T22:00:29.850Z,97955.53
2023-03-15T22:02:57.046Z,97956.72
2023-03-15T22:05:24.051Z,97954.53
2023-03-15T22:07:50.735Z,97969.47
2023-03-15T22:10:19.638Z,97966.81
2023-03-15T22:12:46.389Z,97956.75
2023-03-15T22:15:13.412Z,97964.13
2023-03-15T22:17:40.186Z,97957.97
2023-03-15T22:20:17.082Z,97963.34
2023-03-15T22:22:48.997Z,97964.56
2023-03-15T22:25:16.322Z,97966.28
2023-03-15T22:27:43.637Z,97971.69
2023-03-15T22:30:17.708Z,97972.91
2023-03-15T22:32:44.647Z,97973.66
2023-03-15T22:35:13.627Z,97977.31
2023-03-15T22:37:40.282Z,97968.03
2023-03-15T22:40:08.374Z,97975.84
2023-03-15T22:42:35.372Z,97975.38
2023-03-15T22:45:02.112Z,97988.38
2023-03-15T22:47:28.998Z,97982.00
2023-03-15T22:49:55.626Z,97981.22
2023-03-15T22:52:22.256Z,97987.16
2023-03-15T22:54:48.889Z,97980.03
2023-03-15T22:57:15.502Z,97986.16
2023-03-15T22:59:42.081Z,97984.72
2023-03-15T23:02:09.132Z,97986.41
2023-03-15T23:04:35.781Z,97992.53
2023-03-15T23:07:02.393Z,97991.09
2023-03-15T23:09:29.159Z,97999.91
2023-03-15T23:11:55.803Z,97994.25
2023-03-15T23:14:22.466Z,97993.06
2023-03-15T23:16:49.495Z,97995.97
2023-03-15T23:19:16.194Z,98002.59
2023-03-15T23:21:42.824Z,98010.91
2023-03-15T23:24:09.483Z,97999.41
2023-03-15T23:26:37.155Z,98009.69
2023-03-15T23:29:10.662Z,98005.53
2023-03-15T23:31:41.785Z,98016.31
2023-03-15T23:34:09.030Z,98016.84
2023-03-15T23:36:36.339Z,98018.53
2023-03-15T23:39:03.026Z,98019.50
2023-03-15T23:41:29.777Z,98024.94
2023-03-15T23:43:56.538Z,98030.81
2023-03-15T23:46:25.972Z,98022.44
2023-03-15T23:48:53.192Z,98029.78
2023-03-15T23:51:22.128Z,98018.28
2023-03-15T23:53:48.744Z,98016.84
2023-03-15T23:56:15.384Z,98016.31
2023-03-15T23:58:42.050Z,98017.28
